Time;durP1;ratioP1;P1;durP2;ratioP2;P2;SDS_P1;SDS_P2;PMS_P1;PMS_P2;Temp;Humidity;BMP_temperature;BMP_pressure;BME280_temperature;BME280_humidity;BME280_pressure;Samples;Min_cycle;Max_cycle;Signal;HPM_P1;HPM_P2
2022/06/21 00:02:16;;;;;;;1.98;1.32;;;;;;;21.15;44.84;98390.27;1694340;84;21085;-83
2022/06/21 00:04:44;;;;;;;3.00;1.47;;;;;;;21.12;44.86;98394.07;1694495;84;21094;-83
2022/06/21 00:07:16;;;;;;;1.55;1.37;;;;;;;21.08;44.92;98387.34;1694625;83;21221;-82
2022/06/21 00:09:44;;;;;;;2.83;1.45;;;;;;;21.05;45.00;98389.48;1694043;84;21122;-83
2022/06/21 00:12:12;;;;;;;2.85;1.02;;;;;;;21.01;44.91;98388.08;1694560;84;21030;-84
2022/06/21 00:14:40;;;;;;;4.97;1.40;;;;;;;20.98;44.86;98387.89;1694387;84;21462;-82
2022/06/21 00:17:18;;;;;;;3.83;1.35;;;;;;;20.97;44.79;98379.51;1666599;86;21113;-79
2022/06/21 00:19:45;;;;;;;8.20;1.45;;;;;;;20.96;44.82;98385.83;1667299;86;21144;-78
2022/06/21 00:22:15;;;;;;;1.60;1.30;;;;;;;20.93;44.70;98382.11;1661832;86;21063;-79
2022/06/21 00:24:43;;;;;;;6.37;1.55;;;;;;;20.92;44.56;98375.09;1667660;85;21842;-81
2022/06/21 00:27:19;;;;;;;2.47;1.10;;;;;;;20.91;44.52;98370.73;1632689;87;21664;-81
2022/06/21 00:29:45;;;;;;;2.55;1.40;;;;;;;20.90;44.26;98365.05;1644037;87;21087;-81
2022/06/21 00:32:18;;;;;;;3.00;1.30;;;;;;;20.90;44.26;98369.89;1644198;87;21095;-80
2022/06/21 00:34:45;;;;;;;1.17;1.00;;;;;;;20.89;44.14;98368.70;1643960;87;21012;-81
2022/06/21 00:37:19;;;;;;;5.15;1.55;;;;;;;20.87;44.01;98361.33;1644055;87;21059;-81
2022/06/21 00:39:46;;;;;;;2.42;1.47;;;;;;;20.88;43.86;98358.51;1643416;87;21533;-83
2022/06/21 00:42:29;;;;;;;7.40;1.27;;;;;;;20.86;43.74;98356.95;1631593;87;21027;-81
2022/06/21 00:45:13;;;;;;;2.02;1.20;;;;;;;20.86;43.49;98355.12;1643120;87;21273;-82
2022/06/21 00:47:48;;;;;;;6.03;1.17;;;;;;;20.85;43.27;98349.95;1654295;86;22096;-83
2022/06/21 00:50:34;;;;;;;4.55;1.27;;;;;;;20.86;43.11;98349.77;1632455;87;21027;-82
2022/06/21 00:53:29;;;;;;;1.72;1.15;;;;;;;20.85;42.98;98345.43;1632552;87;21103;-81
2022/06/21 00:56:25;;;;;;;2.22;1.32;;;;;;;20.86;42.88;98342.25;1633036;87;22722;-82
2022/06/21 00:58:51;;;;;;;2.72;1.15;;;;;;;20.86;42.78;98340.92;1632006;87;21186;-81
2022/06/21 01:01:29;;;;;;;6.45;1.80;;;;;;;20.84;42.48;98338.89;1632451;87;21143;-83
2022/06/21 01:04:22;;;;;;;2.05;1.52;;;;;;;20.84;42.51;98336.22;1632573;87;21075;-81
2022/06/21 01:06:51;;;;;;;5.28;1.20;;;;;;;20.83;42.29;98329.17;1632336;87;22250;-82
2022/06/21 01:09:25;;;;;;;1.35;1.20;;;;;;;20.81;42.34;98325.81;1632425;87;21103;-79
2022/06/21 01:12:06;;;;;;;5.42;1.27;;;;;;;20.78;42.38;98326.47;1661504;86;21135;-82
2022/06/21 01:14:35;;;;;;;2.12;1.15;;;;;;;20.78;42.22;98329.14;1661304;86;21143;-83
2022/06/21 01:17:04;;;;;;;4.00;1.30;;;;;;;20.77;42.13;98319.42;1661349;86;20966;-82
2022/06/21 01:19:48;;;;;;;3.17;0.98;;;;;;;20.76;41.99;98315.56;1660730;85;21024;-83
2022/06/21 01:22:29;;;;;;;1.90;1.20;;;;;;;20.74;42.15;98315.70;1661381;86;21163;-81
2022/06/21 01:25:30;;;;;;;1.42;1.12;;;;;;;20.72;42.20;98311.51;1661535;86;21175;-82
2022/06/21 01:27:56;;;;;;;2.40;1.30;;;;;;;20.71;42.12;98303.99;1661214;86;21147;-82
2022/06/21 01:30:26;;;;;;;1.37;1.05;;;;;;;20.68;42.11;98304.28;1661606;86;21128;-82
2022/06/21 01:32:52;;;;;;;6.50;1.20;;;;;;;20.64;42.19;98302.88;1661362;86;21226;-81
2022/06/21 01:35:37;;;;;;;4.05;1.30;;;;;;;20.63;42.14;98294.53;1661218;85;21088;-83
2022/06/21 01:38:05;;;;;;;2.80;1.20;;;;;;;20.60;42.25;98294.78;1661666;86;22301;-81
2022/06/21 01:40:36;;;;;;;7.83;1.32;;;;;;;20.57;42.23;98291.07;1661082;86;21155;-81
2022/06/21 01:43:12;;;;;;;7.78;1.37;;;;;;;20.55;42.32;98285.03;1661229;86;21117;-81
2022/06/21 01:45:41;;;;;;;3.50;1.50;;;;;;;20.51;42.28;98288.50;1661093;86;21650;-80
2022/06/21 01:48:24;;;;;;;5.47;1.30;;;;;;;20.49;42.32;98282.94;1660973;86;21100;-81
2022/06/21 01:50:55;;;;;;;4.10;1.30;;;;;;;20.47;42.34;98285.75;1660854;86;21159;-82
2022/06/21 01:53:23;;;;;;;7.53;1.30;;;;;;;20.45;42.35;98286.91;1661244;85;21103;-82
2022/06/21 01:55:53;;;;;;;6.00;1.00;;;;;;;20.40;42.51;98282.83;1661026;86;21226;-81
2022/06/21 01:58:23;;;;;;;5.22;1.27;;;;;;;20.39;42.50;98281.16;1661588;85;21418;-83
2022/06/21 02:00:55;;;;;;;5.22;1.20;;;;;;;20.38;42.49;98281.30;1660960;85;21563;-82
2022/06/21 02:03:24;;;;;;;7.83;1.47;;;;;;;20.36;42.49;98281.45;1661602;85;22235;-82
2022/06/21 02:05:54;;;;;;;11.38;1.40;;;;;;;20.35;42.54;98280.25;1661276;85;21096;-82
2022/06/21 02:08:24;;;;;;;5.85;1.30;;;;;;;20.32;42.72;98280.03;1660733;86;21016;-81
2022/06/21 02:10:55;;;;;;;2.90;1.40;;;;;;;20.31;42.82;98277.51;1660653;86;21115;-81
2022/06/21 02:13:30;;;;;;;1.95;1.30;;;;;;;20.30;42.97;98273.17;1660946;86;21044;-81
2022/06/21 02:16:13;;;;;;;3.17;1.30;;;;;;;20.28;42.89;98271.14;1661164;86;21116;-81
2022/06/21 02:18:44;;;;;;;4.08;1.57;;;;;;;20.25;43.07;98266.09;1660565;86;21150;-82
2022/06/21 02:21:22;;;;;;;2.02;1.32;;;;;;;20.21;43.34;98265.54;1659937;85;21097;-80
2022/06/21 02:23:52;;;;;;;1.70;1.37;;;;;;;20.17;43.37;98258.79;1626436;88;21108;-81
2022/06/21 02:26:18;;;;;;;4.35;1.52;;;;;;;20.16;43.63;98262.47;1637322;86;21152;-81
2022/06/21 02:28:46;;;;;;;3.47;1.20;;;;;;;20.13;43.57;98256.08;1637845;87;22028;-79
2022/06/21 02:31:12;;;;;;;5.67;1.30;;;;;;;20.12;43.87;98257.88;1637772;86;21685;-81
2022/06/21 02:33:39;;;;;;;5.87;1.32;;;;;;;20.11;43.84;98247.37;1637827;87;21109;-82
2022/06/21 02:36:12;;;;;;;2.65;1.32;;;;;;;20.09;43.96;98241.31;1561053;88;21453;-82
2022/06/21 02:38:44;;;;;;;5.28;1.30;;;;;;;20.07;44.20;98237.95;1659845;86;21109;-81
2022/06/21 02:41:28;;;;;;;3.42;1.60;;;;;;;20.06;44.28;98236.29;1660837;86;21765;-82
2022/06/21 02:43:59;;;;;;;1.60;1.20;;;;;;;20.03;44.58;98230.22;1631617;87;21494;-82
2022/06/21 02:46:30;;;;;;;3.15;1.90;;;;;;;20.01;44.65;98229.53;1660856;86;21090;-83
2022/06/21 02:49:11;;;;;;;4.28;1.47;;;;;;;20.01;44.60;98233.54;1660233;86;21045;-81
2022/06/21 02:51:57;;;;;;;8.38;1.87;;;;;;;20.02;44.64;98231.23;1660693;86;21037;-82
2022/06/21 02:54:38;;;;;;;1.77;1.30;;;;;;;20.01;44.92;98222.86;1660849;86;22344;-83
2022/06/21 02:57:26;;;;;;;4.17;1.80;;;;;;;20.03;44.41;98221.38;1649677;86;21509;-81
2022/06/21 02:59:52;;;;;;;5.40;2.12;;;;;;;20.06;44.66;98221.09;1661037;85;21084;-82
2022/06/21 03:02:23;;;;;;;2.30;1.75;;;;;;;20.11;44.67;98218.00;1660984;86;21504;-82
2022/06/21 03:04:57;;;;;;;5.78;1.65;;;;;;;20.14;44.64;98212.34;1661187;86;21720;-80
2022/06/21 03:07:27;;;;;;;8.23;2.00;;;;;;;20.16;44.95;98205.05;1661019;86;21614;-81
2022/06/21 03:09:54;;;;;;;2.42;1.60;;;;;;;20.19;44.70;98202.92;1661048;86;21579;-81
2022/06/21 03:12:28;;;;;;;2.15;1.62;;;;;;;20.23;44.96;98199.46;1661204;86;21095;-81
2022/06/21 03:14:58;;;;;;;5.33;2.05;;;;;;;20.26;44.95;98203.18;1661177;86;21096;-80
2022/06/21 03:17:46;;;;;;;9.58;2.70;;;;;;;20.30;45.10;98201.89;1657225;86;21137;-83
2022/06/21 03:20:15;;;;;;;5.30;1.98;;;;;;;20.32;45.13;98207.08;1660770;86;21222;-82
2022/06/21 03:22:43;;;;;;;4.67;1.95;;;;;;;20.33;45.21;98202.93;1660847;86;21060;-81
2022/06/21 03:25:27;;;;;;;12.35;2.30;;;;;;;20.36;45.29;98199.14;1661167;86;21103;-84
2022/06/21 03:27:57;;;;;;;6.70;2.00;;;;;;;20.38;44.92;98201.16;1638502;86;21086;-83
2022/06/21 03:30:31;;;;;;;6.58;1.72;;;;;;;20.40;45.15;98186.65;1660650;86;21133;-81
2022/06/21 03:32:59;;;;;;;5.17;1.72;;;;;;;20.45;45.27;98189.39;1660586;86;21115;-82
2022/06/21 03:35:26;;;;;;;2.55;1.90;;;;;;;20.47;45.50;98190.91;1658311;86;21550;-82
2022/06/21 03:37:52;;;;;;;6.17;1.70;;;;;;;20.49;45.58;98190.77;1658412;86;21086;-80
2022/06/21 03:43:14;;;;;;;3.77;1.92;;;;;;;20.53;45.63;98194.84;1658178;86;21004;-81
2022/06/21 03:45:41;;;;;;;5.35;1.52;;;;;;;20.56;45.45;98186.02;1658485;86;21633;-82
2022/06/21 03:48:38;;;;;;;3.35;1.70;;;;;;;20.61;45.33;98190.92;1658399;86;21582;-82
2022/06/21 03:51:09;;;;;;;3.33;1.70;;;;;;;20.64;45.90;98182.61;1658202;86;21122;-84
2022/06/21 03:53:45;;;;;;;5.20;1.90;;;;;;;20.70;45.56;98194.05;1658306;86;21182;-83
2022/06/21 03:56:34;;;;;;;4.58;1.87;;;;;;;20.73;45.99;98181.73;1658358;86;21142;-82
2022/06/21 03:59:18;;;;;;;4.03;1.95;;;;;;;20.80;45.88;98191.83;1658382;86;21133;-79
2022/06/21 04:01:53;;;;;;;4.25;1.70;;;;;;;20.84;46.15;98183.84;1658198;86;21118;-82
2022/06/21 04:04:49;;;;;;;5.15;1.90;;;;;;;20.89;45.34;98182.89;1657933;86;21153;-83
2022/06/21 04:07:36;;;;;;;6.87;1.92;;;;;;;20.94;45.47;98177.92;1658188;86;21154;-85
2022/06/21 04:10:11;;;;;;;5.17;2.10;;;;;;;21.00;45.80;98184.02;1657845;86;21154;-84
2022/06/21 04:12:50;;;;;;;2.70;1.70;;;;;;;21.04;45.72;98178.69;1657946;85;21798;-81
2022/06/21 04:15:33;;;;;;;6.08;2.40;;;;;;;21.11;46.16;98166.38;1657901;86;21083;-81
2022/06/21 04:18:15;;;;;;;6.15;1.80;;;;;;;21.18;45.81;98169.79;1657845;86;21089;-86
2022/06/21 04:21:12;;;;;;;2.85;1.67;;;;;;;21.24;45.86;98162.50;1658216;86;21079;-82
2022/06/21 04:24:02;;;;;;;5.42;2.00;;;;;;;21.29;45.97;98168.23;1658380;86;21229;-84
2022/06/21 04:26:44;;;;;;;5.87;2.12;;;;;;;21.37;45.81;98168.30;1657417;86;21078;-82
2022/06/21 04:29:16;;;;;;;4.33;1.90;;;;;;;21.46;46.12;98162.00;1650939;85;22270;-82
2022/06/21 04:31:58;;;;;;;6.10;1.60;;;;;;;21.55;46.19;98164.77;1657334;85;21123;-86
2022/06/21 04:34:32;;;;;;;8.73;2.10;;;;;;;21.62;45.95;98165.34;1653299;86;21170;-84
2022/06/21 04:37:37;;;;;;;10.50;2.45;;;;;;;21.70;45.68;98162.72;1694443;83;21102;-86
2022/06/21 04:40:24;;;;;;;6.10;2.22;;;;;;;21.79;45.83;98154.75;1694546;84;21133;-84
2022/06/21 04:43:05;;;;;;;5.28;1.60;;;;;;;21.88;45.88;98153.27;1680132;84;21082;-84
2022/06/21 04:45:54;;;;;;;8.78;1.80;;;;;;;21.98;45.44;98141.63;1694026;84;21082;-85
2022/06/21 04:48:45;;;;;;;7.45;2.08;;;;;;;22.04;45.26;98151.20;1694368;84;21121;-82
2022/06/21 04:51:20;;;;;;;15.00;2.15;;;;;;;22.14;45.52;98141.71;1694516;84;21185;-83
2022/06/21 04:54:02;;;;;;;3.90;1.52;;;;;;;22.22;46.13;98140.38;1694448;84;21395;-83
2022/06/21 04:56:52;;;;;;;5.65;1.95;;;;;;;22.31;45.01;98129.73;1694410;84;21062;-82
2022/06/21 04:59:33;;;;;;;3.67;1.72;;;;;;;22.38;45.72;98137.48;1694641;84;21165;-83
2022/06/21 05:01:59;;;;;;;10.78;1.92;;;;;;;22.50;45.59;98129.47;1694549;83;21697;-82
2022/06/21 05:04:33;;;;;;;6.78;1.55;;;;;;;22.60;45.42;98131.50;1694719;84;21148;-84
2022/06/21 05:07:04;;;;;;;8.93;1.70;;;;;;;22.68;44.94;98125.81;1694908;84;21527;-83
2022/06/21 05:09:32;;;;;;;7.45;1.80;;;;;;;22.77;45.16;98123.50;1694592;83;21152;-83
2022/06/21 05:12:04;;;;;;;5.70;1.80;;;;;;;22.85;45.21;98126.68;1694789;84;21130;-84
2022/06/21 05:14:35;;;;;;;11.38;1.92;;;;;;;22.92;44.78;98113.80;1694271;84;21604;-83
2022/06/21 05:17:03;;;;;;;7.37;2.25;;;;;;;23.00;44.98;98112.47;1694263;84;21526;-80
2022/06/21 05:19:33;;;;;;;4.28;1.77;;;;;;;23.07;45.08;98111.84;1694377;84;21170;-83
2022/06/21 05:22:35;;;;;;;3.15;1.87;;;;;;;23.17;45.67;98108.48;1694184;84;21077;-84
2022/06/21 05:25:05;;;;;;;5.20;2.50;;;;;;;23.27;45.28;98106.46;1700126;84;21484;-81
2022/06/21 05:27:48;;;;;;;8.53;1.80;;;;;;;23.40;44.78;98103.76;1694334;84;21051;-83
2022/06/21 05:30:36;;;;;;;5.75;1.75;;;;;;;23.45;44.23;98098.72;1694214;83;21090;-79
2022/06/21 05:33:21;;;;;;;9.43;2.30;;;;;;;23.49;44.62;98098.21;1694350;84;21814;-81
2022/06/21 05:35:48;;;;;;;6.75;1.67;;;;;;;23.55;44.50;98092.66;1694284;84;21027;-82
2022/06/21 05:38:23;;;;;;;8.95;1.75;;;;;;;23.63;44.21;98091.81;1676152;84;21130;-82
2022/06/21 05:40:57;;;;;;;10.08;2.65;;;;;;;23.68;44.70;98103.70;1676925;84;21134;-83
2022/06/21 05:43:47;;;;;;;10.85;2.25;;;;;;;23.78;44.60;98094.63;1675851;84;21118;-81
2022/06/21 05:46:16;;;;;;;6.25;1.72;;;;;;;23.84;44.02;98091.27;1693250;84;21589;-83
2022/06/21 05:48:43;;;;;;;3.40;1.77;;;;;;;23.89;44.61;98094.30;1694076;84;21078;-84
2022/06/21 05:51:19;;;;;;;9.60;1.70;;;;;;;23.97;45.04;98094.25;1694549;84;21133;-84
2022/06/21 05:53:49;;;;;;;8.93;2.80;;;;;;;24.07;44.70;98076.09;1694257;83;28236;-83
2022/06/21 05:56:19;;;;;;;15.20;2.50;;;;;;;24.19;44.68;98095.84;1694319;83;21078;-82
2022/06/21 05:58:51;;;;;;;8.25;3.27;;;;;;;24.24;44.38;98084.06;1694403;83;21455;-82
2022/06/21 06:01:26;;;;;;;2.90;2.10;;;;;;;24.32;43.87;98080.50;1694544;84;21065;-82
2022/06/21 06:04:00;;;;;;;8.88;2.15;;;;;;;24.38;43.81;98075.27;1694457;84;21078;-82
2022/06/21 06:06:29;;;;;;;6.00;1.92;;;;;;;24.45;44.07;98073.53;1694225;84;21012;-82
2022/06/21 06:09:03;;;;;;;4.28;2.08;;;;;;;24.53;44.36;98076.69;1694850;83;20991;-81
2022/06/21 06:14:19;;;;;;;10.40;1.98;;;;;;;24.73;43.61;98074.89;1694691;84;20998;-81
2022/06/21 06:16:48;;;;;;;5.83;2.02;;;;;;;24.77;43.02;98077.58;1694353;83;21683;-84
2022/06/21 06:19:29;;;;;;;15.75;2.10;;;;;;;24.81;44.66;98074.84;1694827;83;21118;-84
2022/06/21 06:22:13;;;;;;;9.20;1.80;;;;;;;24.91;44.21;98075.95;1694118;83;21118;-83
2022/06/21 06:24:50;;;;;;;8.05;2.30;;;;;;;24.95;44.65;98074.56;1694862;83;21058;-83
2022/06/21 06:27:26;;;;;;;6.85;1.90;;;;;;;24.99;43.84;98082.09;1695934;84;21657;-82
2022/06/21 06:29:53;;;;;;;11.78;2.00;;;;;;;25.01;44.02;98076.02;1659746;86;21016;-82
2022/06/21 06:32:35;;;;;;;8.05;2.33;;;;;;;25.05;44.47;98075.17;1659821;85;21122;-81
2022/06/21 06:35:03;;;;;;;4.12;1.95;;;;;;;25.11;44.06;98090.58;1660081;85;21127;-82
2022/06/21 06:37:41;;;;;;;7.40;1.92;;;;;;;25.10;44.52;98079.50;1697867;83;21689;-81
2022/06/21 06:40:11;;;;;;;10.32;2.37;;;;;;;25.10;44.68;98066.05;1694606;83;21514;-84
2022/06/21 06:42:38;;;;;;;4.85;2.00;;;;;;;25.13;44.40;98059.45;1676235;84;21545;-86
2022/06/21 06:45:15;;;;;;;8.05;2.10;;;;;;;25.17;45.41;98068.33;1694566;83;21554;-81
2022/06/21 06:48:01;;;;;;;8.55;2.12;;;;;;;25.24;45.17;98064.92;1694390;83;21518;-84
2022/06/21 06:50:29;;;;;;;12.07;2.42;;;;;;;25.27;45.03;98049.76;1685227;84;21120;-87
2022/06/21 06:53:01;;;;;;;6.80;2.30;;;;;;;25.37;45.50;98048.49;1673275;85;21130;-85
2022/06/21 06:55:46;;;;;;;8.23;2.42;;;;;;;25.45;45.42;98040.82;1606714;89;21112;-84
2022/06/21 06:58:24;;;;;;;7.35;2.25;;;;;;;25.51;45.52;98040.09;1681365;85;21090;-83
2022/06/21 07:00:55;;;;;;;5.67;2.30;;;;;;;25.59;46.19;98045.39;1680063;85;21132;-83
2022/06/21 07:03:25;;;;;;;11.95;2.05;;;;;;;25.70;45.20;98036.52;1673117;85;21118;-84
2022/06/21 07:06:10;;;;;;;11.75;2.40;;;;;;;25.77;45.30;98044.17;1606420;88;21141;-83
2022/06/21 07:08:58;;;;;;;8.03;2.50;;;;;;;25.84;45.66;98043.77;1680674;85;21478;-82
2022/06/21 07:11:35;;;;;;;8.95;2.60;;;;;;;25.97;45.50;98036.91;1673529;85;21096;-85
2022/06/21 07:14:04;;;;;;;4.62;2.37;;;;;;;26.15;45.88;98031.95;1606681;89;21072;-84
2022/06/21 07:16:31;;;;;;;3.72;2.30;;;;;;;26.26;45.78;98036.00;1680820;85;21112;-85
2022/06/21 07:19:00;;;;;;;5.90;2.47;;;;;;;26.30;45.61;98030.05;1673331;85;21055;-83
2022/06/21 07:21:27;;;;;;;8.10;2.50;;;;;;;26.39;45.49;98028.58;1606208;89;21100;-82
2022/06/21 07:23:54;;;;;;;13.18;2.58;;;;;;;26.50;45.43;98030.78;1681056;85;21107;-84
2022/06/21 07:26:41;;;;;;;6.40;2.58;;;;;;;26.60;45.38;98038.04;1673147;85;21597;-85
2022/06/21 07:29:13;;;;;;;10.38;2.45;;;;;;;26.68;46.29;98036.60;1606838;89;21116;-82
2022/06/21 07:31:55;;;;;;;14.00;2.55;;;;;;;26.76;45.86;98038.84;1681081;85;21127;-81
2022/06/21 07:34:44;;;;;;;8.08;2.35;;;;;;;26.79;45.49;98038.46;1673298;85;21075;-83
2022/06/21 07:37:18;;;;;;;5.50;2.58;;;;;;;26.85;45.29;98022.86;1606373;89;21183;-83
2022/06/21 07:39:55;;;;;;;9.05;2.58;;;;;;;26.91;44.93;98030.16;1680954;85;21031;-78
2022/06/21 07:42:36;;;;;;;9.38;2.87;;;;;;;26.95;44.92;98027.89;1680708;85;21171;-82
2022/06/21 07:45:23;;;;;;;7.58;2.60;;;;;;;26.97;45.40;98024.52;1680306;85;21575;-85
2022/06/21 07:48:11;;;;;;;4.67;2.37;;;;;;;27.02;46.88;98028.28;1678474;85;21569;-85
2022/06/21 07:50:45;;;;;;;8.38;3.12;;;;;;;27.21;45.42;98017.84;1664667;85;21623;-88
2022/06/21 07:53:20;;;;;;;4.08;2.67;;;;;;;27.32;45.29;98009.72;1653645;86;21107;-82
2022/06/21 07:55:52;;;;;;;10.55;2.72;;;;;;;27.34;45.05;98012.56;1653370;86;21655;-82
2022/06/21 07:58:38;;;;;;;6.85;2.37;;;;;;;27.37;44.39;98009.47;1630299;87;21123;-82
2022/06/21 08:07:05;;;;;;;14.05;3.00;;;;;;;27.38;44.77;98016.52;1658459;86;21533;-81
2022/06/21 08:09:46;;;;;;;5.22;2.83;;;;;;;27.39;44.90;98010.10;1658709;86;21126;-81
2022/06/21 08:12:14;;;;;;;6.55;2.37;;;;;;;27.45;44.83;98002.23;1653283;86;21048;-83
2022/06/21 08:14:41;;;;;;;7.85;2.62;;;;;;;27.54;45.06;98001.06;1694570;84;21054;-84
2022/06/21 08:17:23;;;;;;;6.53;2.90;;;;;;;27.62;45.07;98002.22;1694334;84;21074;-85
2022/06/21 08:20:08;;;;;;;9.58;2.65;;;;;;;27.71;43.96;98003.73;1694264;84;20990;-83
2022/06/21 08:22:59;;;;;;;5.53;2.10;;;;;;;27.78;43.78;98000.54;1694485;83;21165;-82
2022/06/21 08:25:31;;;;;;;7.83;2.33;;;;;;;27.84;42.90;98002.13;1694714;84;21125;-83
2022/06/21 08:28:11;;;;;;;12.73;2.60;;;;;;;27.97;44.25;98004.91;1695514;83;22432;-82
2022/06/21 08:30:50;;;;;;;9.40;2.33;;;;;;;28.08;42.39;98008.39;1695237;84;21027;-83
2022/06/21 08:33:28;;;;;;;10.00;2.47;;;;;;;28.10;42.21;98006.31;1659525;85;21111;-82
2022/06/21 08:36:06;;;;;;;10.08;2.42;;;;;;;28.06;41.69;98005.06;1659646;85;21596;-84
2022/06/21 08:38:51;;;;;;;7.00;2.20;;;;;;;28.08;41.77;98007.58;1659727;85;21102;-81
2022/06/21 08:41:58;;;;;;;10.45;2.17;;;;;;;28.10;41.39;98011.72;1659825;85;21031;-82
2022/06/21 08:45:41;;;;;;;4.37;2.00;;;;;;;28.06;40.80;98001.02;1659745;85;21004;-83
2022/06/21 08:48:42;;;;;;;6.95;2.37;;;;;;;28.07;40.72;98002.66;1659671;86;21151;-82
2022/06/21 08:51:21;;;;;;;11.22;2.98;;;;;;;28.17;41.00;97995.52;1695848;84;21161;-81
2022/06/21 08:54:26;;;;;;;5.87;2.20;;;;;;;28.31;41.91;97988.27;1696072;84;21016;-83
2022/06/21 08:57:19;;;;;;;6.03;2.15;;;;;;;28.53;40.83;97989.78;1695794;84;21153;-83
2022/06/21 09:00:03;;;;;;;6.15;2.37;;;;;;;28.66;40.90;97994.92;1659510;85;21115;-83
2022/06/21 09:03:00;;;;;;;3.45;2.12;;;;;;;28.75;40.46;97996.41;1696036;83;21149;-83
2022/06/21 09:05:55;;;;;;;11.65;2.60;;;;;;;28.80;40.43;97980.38;1628817;86;21871;-81
2022/06/21 09:08:40;;;;;;;5.85;2.45;;;;;;;28.85;40.87;97981.94;1695974;84;21075;-82
2022/06/21 09:11:26;;;;;;;6.33;2.22;;;;;;;28.98;40.00;97991.08;1675742;84;21189;-82
2022/06/21 09:14:21;;;;;;;5.30;2.80;;;;;;;28.97;39.59;97983.48;1659650;86;21035;-82
2022/06/21 09:17:28;;;;;;;10.53;2.60;;;;;;;28.96;39.59;97978.28;1659116;86;21150;-82
2022/06/21 09:20:21;;;;;;;5.72;1.92;;;;;;;28.84;39.05;97978.91;1659067;86;21152;-81
2022/06/21 09:23:08;;;;;;;6.83;2.40;;;;;;;28.76;40.17;97977.75;1659329;85;21075;-82
2022/06/21 09:26:00;;;;;;;15.23;2.67;;;;;;;28.78;40.78;97970.28;1659814;85;21126;-86
2022/06/21 09:28:48;;;;;;;7.95;2.47;;;;;;;28.85;41.01;97979.72;1696054;84;21054;-84
2022/06/21 09:31:24;;;;;;;8.38;2.42;;;;;;;28.95;41.27;97967.98;1659409;86;41737;-81
2022/06/21 09:33:57;;;;;;;9.40;2.42;;;;;;;29.17;40.92;97961.84;1696109;84;21157;-78
2022/06/21 09:36:56;;;;;;;5.45;1.82;;;;;;;29.39;40.30;97957.53;1659569;86;20996;-85
2022/06/21 09:39:31;;;;;;;7.55;1.92;;;;;;;29.53;39.04;97959.14;1660067;86;21099;-82
2022/06/21 09:42:19;;;;;;;6.67;1.95;;;;;;;29.46;39.96;97952.39;1695701;84;21067;-81
2022/06/21 09:45:14;;;;;;;10.48;2.50;;;;;;;29.51;40.15;97947.69;1696071;84;21071;-82
2022/06/21 09:47:55;;;;;;;6.37;1.82;;;;;;;29.57;39.17;97941.92;1696069;84;21159;-83
2022/06/21 09:50:46;;;;;;;8.93;2.10;;;;;;;29.56;39.29;97935.69;1660045;86;21851;-84
2022/06/21 09:53:44;;;;;;;10.63;2.12;;;;;;;29.53;38.46;97942.05;1695937;84;21030;-80
2022/06/21 09:56:45;;;;;;;10.28;2.17;;;;;;;29.31;38.41;97939.61;1660124;86;21012;-85
2022/06/21 09:59:20;;;;;;;3.58;1.90;;;;;;;29.03;39.09;97939.84;1660614;86;21008;-82
2022/06/21 10:01:55;;;;;;;8.88;2.52;;;;;;;28.79;39.07;97928.62;1697805;84;21529;-81
2022/06/21 10:04:29;;;;;;;17.12;3.25;;;;;;;28.63;40.02;97929.03;1661714;86;21031;-80
2022/06/21 10:07:20;;;;;;;10.63;2.30;;;;;;;28.56;40.29;97936.33;1669319;84;20987;-79
2022/06/21 10:09:58;;;;;;;12.75;2.55;;;;;;;28.53;41.05;97947.84;1676024;84;21153;-81
2022/06/21 10:13:02;;;;;;;16.97;3.02;;;;;;;28.57;41.02;97940.71;1697956;84;21625;-79
2022/06/21 10:15:56;;;;;;;23.65;2.40;;;;;;;28.42;42.24;97959.27;1660982;86;21115;-81
2022/06/21 10:18:57;;;;;;;21.35;3.40;;;;;;;27.96;43.28;97962.19;1693507;84;21728;-82
2022/06/21 10:22:03;;;;;;;14.05;2.80;;;;;;;27.63;44.52;97966.60;1695824;84;21082;-83
2022/06/21 10:25:10;;;;;;;16.40;2.62;;;;;;;27.35;45.54;97957.53;1659667;86;21041;-83
2022/06/21 10:28:02;;;;;;;19.82;3.15;;;;;;;27.02;46.47;97964.85;1659611;86;21680;-82
2022/06/21 10:30:51;;;;;;;14.87;2.90;;;;;;;26.86;47.52;97966.48;1659543;85;22170;-81
2022/06/21 10:33:38;;;;;;;19.73;3.45;;;;;;;26.54;48.18;97971.38;1659843;86;21173;-79
2022/06/21 10:36:49;;;;;;;13.13;2.62;;;;;;;26.13;49.14;97955.31;1615479;88;21095;-81
2022/06/21 10:39:47;;;;;;;11.45;2.60;;;;;;;25.91;50.01;97966.55;1670934;85;21143;-82
2022/06/21 10:42:47;;;;;;;11.75;2.72;;;;;;;25.77;50.26;97967.39;1693076;84;21544;-83
2022/06/21 10:45:35;;;;;;;15.45;2.47;;;;;;;25.72;50.71;97969.81;1693694;84;21122;-82
2022/06/21 10:48:44;;;;;;;12.80;2.83;;;;;;;25.64;50.97;97984.73;1656995;86;21138;-83
2022/06/21 10:51:41;;;;;;;11.97;3.40;;;;;;;25.61;50.65;97998.59;1669699;85;21084;-82
2022/06/21 10:54:32;;;;;;;9.75;3.33;;;;;;;25.51;50.96;97995.66;1671467;85;21646;-85
2022/06/21 10:57:23;;;;;;;15.32;3.92;;;;;;;25.45;51.22;97997.73;1671628;85;21523;-82
2022/06/21 11:03:03;;;;;;;15.95;3.50;;;;;;;25.21;51.97;98006.38;1671588;85;21567;-82
2022/06/21 11:06:11;;;;;;;10.80;3.60;;;;;;;25.11;51.86;98003.11;1671311;85;21099;-81
2022/06/21 11:08:58;;;;;;;8.08;3.80;;;;;;;24.98;52.12;98019.05;1671671;85;21021;-81
2022/06/21 11:11:46;;;;;;;8.20;3.67;;;;;;;24.87;52.70;98016.30;1671546;85;21068;-86
2022/06/21 11:14:33;;;;;;;12.37;4.15;;;;;;;24.80;53.66;98018.87;1671642;85;21099;-80
2022/06/21 11:17:14;;;;;;;12.25;4.08;;;;;;;24.72;54.32;98028.86;1671147;85;21142;-82
2022/06/21 11:20:05;;;;;;;9.48;4.00;;;;;;;24.63;55.02;98022.72;1671116;85;21163;-82
2022/06/21 11:23:09;;;;;;;15.30;4.50;;;;;;;24.64;55.41;98029.75;1670407;85;21537;-81
2022/06/21 11:26:10;;;;;;;12.82;4.33;;;;;;;24.61;55.79;98030.10;1671481;85;21090;-82
2022/06/21 11:29:04;;;;;;;13.08;4.70;;;;;;;24.53;56.58;98020.23;1671283;85;21111;-80
2022/06/21 11:31:55;;;;;;;12.25;4.50;;;;;;;24.49;56.81;98010.83;1671716;85;21064;-82
2022/06/21 11:35:08;;;;;;;20.95;6.10;;;;;;;24.46;57.84;98012.52;1671724;85;21116;-82
2022/06/21 11:38:02;;;;;;;31.97;5.30;;;;;;;24.35;57.86;98024.54;1671688;85;21474;-84
2022/06/21 11:40:47;;;;;;;60.67;5.20;;;;;;;24.06;57.77;98046.72;1671559;85;21154;-85
2022/06/21 11:43:45;;;;;;;42.40;3.40;;;;;;;23.62;57.29;98105.75;1671937;85;21098;-82
2022/06/21 11:46:44;;;;;;;51.18;2.42;;;;;;;22.67;57.77;98133.54;1671733;85;21020;-81
2022/06/21 11:49:25;;;;;;;51.05;3.42;;;;;;;21.79;58.63;98128.80;1660425;85;21535;-85
2022/06/21 11:52:40;;;;;;;15.48;1.60;;;;;;;21.17;61.40;98170.80;1669595;85;21040;-83
2022/06/21 11:55:31;;;;;;;10.55;1.67;;;;;;;20.72;64.28;98200.08;1657160;86;20984;-81
2022/06/21 11:58:21;;;;;;;15.50;2.02;;;;;;;20.13;72.86;98198.66;1667723;85;21529;-81
2022/06/21 12:01:05;;;;;;;10.05;1.85;;;;;;;19.66;73.52;98172.27;1656972;86;21337;-84
2022/06/21 12:03:55;;;;;;;5.65;1.10;;;;;;;19.39;73.64;98183.69;1669015;85;21139;-85
2022/06/21 12:06:36;;;;;;;3.12;1.00;;;;;;;19.17;74.37;98196.81;1638655;85;21573;-83
2022/06/21 12:09:17;;;;;;;10.35;1.05;;;;;;;18.97;75.04;98187.97;1657004;86;21261;-84
2022/06/21 12:11:55;;;;;;;1.47;0.80;;;;;;;18.74;75.84;98215.31;1668943;86;21132;-84
2022/06/21 12:14:58;;;;;;;2.85;0.90;;;;;;;18.37;75.71;98224.75;1657319;86;21131;-83
2022/06/21 12:17:50;;;;;;;2.52;0.60;;;;;;;18.07;76.45;98235.38;1617603;88;21160;-84
2022/06/21 12:20:39;;;;;;;5.75;0.90;;;;;;;17.81;78.00;98239.27;1651418;86;21668;-84
2022/06/21 12:23:29;;;;;;;6.53;0.93;;;;;;;17.53;78.15;98216.80;1619502;86;21012;-82
2022/06/21 12:25:55;;;;;;;3.58;0.70;;;;;;;17.34;79.01;98225.49;1657167;86;21757;-87
2022/06/21 12:28:24;;;;;;;0.90;0.70;;;;;;;17.22;80.30;98215.88;1668752;85;21092;-87
2022/06/21 12:30:52;;;;;;;2.42;0.80;;;;;;;17.16;80.58;98215.89;1657041;86;21086;-86
2022/06/21 12:33:22;;;;;;;1.52;0.80;;;;;;;17.15;80.64;98201.42;1656931;86;21099;-86
2022/06/21 12:36:01;;;;;;;4.22;1.20;;;;;;;17.19;80.76;98198.86;1661677;85;21036;-83
2022/06/21 12:38:37;;;;;;;2.85;1.00;;;;;;;17.20;80.00;98215.17;1674777;85;21160;-85
2022/06/21 12:41:41;;;;;;;13.38;1.12;;;;;;;17.17;79.90;98205.62;1675126;85;21068;-89
2022/06/21 12:44:29;;;;;;;1.95;1.00;;;;;;;17.18;80.48;98223.27;1674010;85;21086;-84
2022/06/21 12:47:35;;;;;;;1.45;1.10;;;;;;;17.21;80.79;98231.46;1665614;85;21063;-88
2022/06/21 12:50:36;;;;;;;1.20;0.72;;;;;;;17.24;80.70;98240.52;1669104;85;21099;-79